sensor_id;sensor_type;location;lat;lon;timestamp;pressure;altitude;pressure_sealevel;temperature;humidity
50652;BME280;61429;52.086;5.240;2022-08-05T00:00:49;101470.0;;;20.8;66.81
50652;BME280;61429;52.086;5.240;2022-08-05T00:02:36;101475.0;;;20.98;66.28
50652;BME280;61429;52.086;5.240;2022-08-05T00:04:23;101480.0;;;21.14;65.63
50652;BME280;61429;52.086;5.240;2022-08-05T00:07:57;101482.0;;;20.98;66.12
50652;BME280;61429;52.086;5.240;2022-08-05T00:09:43;101475.0;;;21.01;66.22
50652;BME280;61429;52.086;5.240;2022-08-05T00:11:30;101484.0;;;20.99;66.34
50652;BME280;61429;52.086;5.240;2022-08-05T00:13:16;101476.0;;;21.06;66.13
50652;BME280;61429;52.086;5.240;2022-08-05T00:15:03;101468.0;;;21.04;66.13
50652;BME280;61429;52.086;5.240;2022-08-05T00:16:49;101467.0;;;20.76;67.11
50652;BME280;61429;52.086;5.240;2022-08-05T00:20:24;101469.0;;;20.93;66.69
50652;BME280;61429;52.086;5.240;2022-08-05T00:22:12;101463.0;;;20.72;67.44
50652;BME280;61429;52.086;5.240;2022-08-05T00:23:59;101463.0;;;20.96;66.8
50652;BME280;61429;52.086;5.240;2022-08-05T00:25:46;101466.0;;;20.75;67.47
50652;BME280;61429;52.086;5.240;2022-08-05T00:27:33;101462.0;;;20.83;67.5
50652;BME280;61429;52.086;5.240;2022-08-05T00:31:06;101459.0;;;20.8;67.67
50652;BME280;61429;52.086;5.240;2022-08-05T00:32:53;101459.0;;;20.79;67.75
50652;BME280;61429;52.086;5.240;2022-08-05T00:34:40;101451.0;;;20.84;67.75
50652;BME280;61429;52.086;5.240;2022-08-05T00:36:27;101459.0;;;20.85;67.83
50652;BME280;61429;52.086;5.240;2022-08-05T00:38:14;101459.0;;;20.7;68.58
50652;BME280;61429;52.086;5.240;2022-08-05T00:40:00;101465.0;;;20.75;68.58
50652;BME280;61429;52.086;5.240;2022-08-05T00:43:33;101469.0;;;20.81;68.38
50652;BME280;61429;52.086;5.240;2022-08-05T00:45:20;101465.0;;;20.72;68.94
50652;BME280;61429;52.086;5.240;2022-08-05T00:47:07;101462.0;;;20.76;68.78
50652;BME280;61429;52.086;5.240;2022-08-05T00:48:54;101461.0;;;20.83;68.67
50652;BME280;61429;52.086;5.240;2022-08-05T00:50:43;101462.0;;;20.97;68.11
50652;BME280;61429;52.086;5.240;2022-08-05T00:52:32;101462.0;;;20.89;68.52
50652;BME280;61429;52.086;5.240;2022-08-05T00:56:08;101468.0;;;20.85;68.77
50652;BME280;61429;52.086;5.240;2022-08-05T00:57:54;101475.0;;;20.86;68.8
50652;BME280;61429;52.086;5.240;2022-08-05T00:59:40;101470.0;;;20.69;69.47
50652;BME280;61429;52.086;5.240;2022-08-05T01:01:27;101466.0;;;20.65;69.75
50652;BME280;61429;52.086;5.240;2022-08-05T01:03:14;101460.0;;;20.62;69.91
50652;BME280;61429;52.086;5.240;2022-08-05T01:05:01;101456.0;;;20.6;70.03
50652;BME280;61429;52.086;5.240;2022-08-05T01:08:33;101460.0;;;20.52;70.42
50652;BME280;61429;52.086;5.240;2022-08-05T01:10:26;101462.0;;;20.72;69.77
50652;BME280;61429;52.086;5.240;2022-08-05T01:12:25;101475.0;;;20.7;69.74
50652;BME280;61429;52.086;5.240;2022-08-05T01:14:17;101470.0;;;20.64;70.0
50652;BME280;61429;52.086;5.240;2022-08-05T01:16:13;101472.0;;;20.66;70.0
50652;BME280;61429;52.086;5.240;2022-08-05T01:18:11;101468.0;;;20.53;70.16
50652;BME280;61429;52.086;5.240;2022-08-05T01:20:14;101466.0;;;20.53;70.16
50652;BME280;61429;52.086;5.240;2022-08-05T01:22:24;101470.0;;;20.41;70.16
50652;BME280;61429;52.086;5.240;2022-08-05T01:24:46;101472.0;;;20.34;70.34
50652;BME280;61429;52.086;5.240;2022-08-05T01:27:47;101475.0;;;20.28;70.27
50652;BME280;61429;52.086;5.240;2022-08-05T01:29:44;101474.0;;;20.3;70.36
50652;BME280;61429;52.086;5.240;2022-08-05T01:31:38;101471.0;;;20.2;70.44
50652;BME280;61429;52.086;5.240;2022-08-05T01:33:33;101471.0;;;20.27;70.25
50652;BME280;61429;52.086;5.240;2022-08-05T01:35:25;101481.0;;;20.36;69.69
50652;BME280;61429;52.086;5.240;2022-08-05T01:37:18;101484.0;;;20.45;69.41
50652;BME280;61429;52.086;5.240;2022-08-05T01:39:09;101493.0;;;20.38;69.59
50652;BME280;61429;52.086;5.240;2022-08-05T01:40:57;101496.0;;;20.36;69.78
50652;BME280;61429;52.086;5.240;2022-08-05T01:42:45;101497.0;;;20.41;69.61
50652;BME280;61429;52.086;5.240;2022-08-05T01:46:25;101500.0;;;20.47;69.36
50652;BME280;61429;52.086;5.240;2022-08-05T01:48:13;101509.0;;;20.48;69.36
50652;BME280;61429;52.086;5.240;2022-08-05T01:50:03;101511.0;;;20.48;69.3
50652;BME280;61429;52.086;5.240;2022-08-05T01:51:55;101507.0;;;20.48;69.22
50652;BME280;61429;52.086;5.240;2022-08-05T01:53:50;101505.0;;;20.5;69.33
50652;BME280;61429;52.086;5.240;2022-08-05T01:55:39;101503.0;;;20.68;68.66
50652;BME280;61429;52.086;5.240;2022-08-05T01:57:36;101507.0;;;20.51;69.12
50652;BME280;61429;52.086;5.240;2022-08-05T01:59:25;101507.0;;;20.56;68.8
50652;BME280;61429;52.086;5.240;2022-08-05T02:03:07;101498.0;;;20.39;69.41
50652;BME280;61429;52.086;5.240;2022-08-05T02:05:05;101492.0;;;20.34;69.49
50652;BME280;61429;52.086;5.240;2022-08-05T02:06:54;101486.0;;;20.25;69.84
50652;BME280;61429;52.086;5.240;2022-08-05T02:08:42;101484.0;;;20.23;69.88
50652;BME280;61429;52.086;5.240;2022-08-05T02:10:33;101480.0;;;20.2;69.87
50652;BME280;61429;52.086;5.240;2022-08-05T02:12:26;101484.0;;;20.25;69.55
50652;BME280;61429;52.086;5.240;2022-08-05T02:14:27;101489.0;;;20.32;69.33
50652;BME280;61429;52.086;5.240;2022-08-05T02:16:19;101490.0;;;20.34;69.33
50652;BME280;61429;52.086;5.240;2022-08-05T02:18:15;101491.0;;;20.39;69.06
50652;BME280;61429;52.086;5.240;2022-08-05T02:22:14;101496.0;;;20.38;69.05
50652;BME280;61429;52.086;5.240;2022-08-05T02:24:06;101490.0;;;20.36;68.94
50652;BME280;61429;52.086;5.240;2022-08-05T02:25:56;101492.0;;;20.37;69.02
50652;BME280;61429;52.086;5.240;2022-08-05T02:27:49;101485.0;;;20.36;68.99
50652;BME280;61429;52.086;5.240;2022-08-05T02:29:40;101485.0;;;20.32;69.08
50652;BME280;61429;52.086;5.240;2022-08-05T02:31:29;101486.0;;;20.28;69.23
50652;BME280;61429;52.086;5.240;2022-08-05T02:33:19;101483.0;;;20.31;69.13
50652;BME280;61429;52.086;5.240;2022-08-05T02:35:11;101486.0;;;20.28;69.27
50652;BME280;61429;52.086;5.240;2022-08-05T02:37:03;101485.0;;;20.36;69.25
50652;BME280;61429;52.086;5.240;2022-08-05T02:40:41;101480.0;;;20.37;69.11
50652;BME280;61429;52.086;5.240;2022-08-05T02:42:30;101483.0;;;20.23;69.41
50652;BME280;61429;52.086;5.240;2022-08-05T02:44:18;101481.0;;;20.12;69.69
50652;BME280;61429;52.086;5.240;2022-08-05T02:46:06;101474.0;;;20.09;69.8
50652;BME280;61429;52.086;5.240;2022-08-05T02:47:55;101472.0;;;20.18;69.37
50652;BME280;61429;52.086;5.240;2022-08-05T02:49:45;101475.0;;;20.27;69.28
50652;BME280;61429;52.086;5.240;2022-08-05T02:53:23;101468.0;;;20.13;69.84
50652;BME280;61429;52.086;5.240;2022-08-05T02:55:10;101468.0;;;20.27;69.2
50652;BME280;61429;52.086;5.240;2022-08-05T02:56:58;101464.0;;;20.34;68.99
50652;BME280;61429;52.086;5.240;2022-08-05T02:58:46;101460.0;;;20.25;69.02
50652;BME280;61429;52.086;5.240;2022-08-05T03:00:36;101464.0;;;20.06;69.72
50652;BME280;61429;52.086;5.240;2022-08-05T03:02:27;101468.0;;;20.05;69.69
50652;BME280;61429;52.086;5.240;2022-08-05T03:04:17;101471.0;;;20.02;69.91
50652;BME280;61429;52.086;5.240;2022-08-05T03:09:41;101477.0;;;19.98;69.86
50652;BME280;61429;52.086;5.240;2022-08-05T03:11:28;101483.0;;;19.93;70.0
50652;BME280;61429;52.086;5.240;2022-08-05T03:13:16;101490.0;;;20.09;69.41
50652;BME280;61429;52.086;5.240;2022-08-05T03:15:06;101493.0;;;20.02;69.77
50652;BME280;61429;52.086;5.240;2022-08-05T03:16:54;101489.0;;;20.09;69.62
50652;BME280;61429;52.086;5.240;2022-08-05T03:20:27;101490.0;;;20.06;69.58
50652;BME280;61429;52.086;5.240;2022-08-05T03:22:13;101492.0;;;20.02;69.86
50652;BME280;61429;52.086;5.240;2022-08-05T03:24:01;101489.0;;;19.81;70.8
50652;BME280;61429;52.086;5.240;2022-08-05T03:25:49;101488.0;;;19.91;70.41
50652;BME280;61429;52.086;5.240;2022-08-05T03:27:36;101480.0;;;20.03;70.03
50652;BME280;61429;52.086;5.240;2022-08-05T03:29:23;101472.0;;;19.89;70.47
50652;BME280;61429;52.086;5.240;2022-08-05T03:32:59;101471.0;;;20.03;70.08
50652;BME280;61429;52.086;5.240;2022-08-05T03:34:46;101476.0;;;19.97;70.33
50652;BME280;61429;52.086;5.240;2022-08-05T03:36:33;101478.0;;;19.93;70.58
50652;BME280;61429;52.086;5.240;2022-08-05T03:38:21;101480.0;;;19.95;70.48
50652;BME280;61429;52.086;5.240;2022-08-05T03:40:09;101482.0;;;19.84;70.86
50652;BME280;61429;52.086;5.240;2022-08-05T03:41:56;101486.0;;;20.02;70.36
50652;BME280;61429;52.086;5.240;2022-08-05T03:45:30;101487.0;;;20.09;70.09
50652;BME280;61429;52.086;5.240;2022-08-05T03:47:16;101488.0;;;20.11;69.97
50652;BME280;61429;52.086;5.240;2022-08-05T03:49:02;101489.0;;;20.11;69.95
50652;BME280;61429;52.086;5.240;2022-08-05T03:50:51;101497.0;;;20.13;69.84
50652;BME280;61429;52.086;5.240;2022-08-05T03:52:46;101491.0;;;20.25;69.58
50652;BME280;61429;52.086;5.240;2022-08-05T03:54:49;101496.0;;;20.25;69.47
50652;BME280;61429;52.086;5.240;2022-08-05T03:56:41;101495.0;;;20.21;69.75
50652;BME280;61429;52.086;5.240;2022-08-05T04:00:27;101496.0;;;20.37;69.17
50652;BME280;61429;52.086;5.240;2022-08-05T04:02:15;101496.0;;;20.29;69.53
50652;BME280;61429;52.086;5.240;2022-08-05T04:04:05;101497.0;;;20.04;70.45
50652;BME280;61429;52.086;5.240;2022-08-05T04:05:52;101495.0;;;20.28;69.67
50652;BME280;61429;52.086;5.240;2022-08-05T04:07:41;101492.0;;;20.2;70.02
50652;BME280;61429;52.086;5.240;2022-08-05T04:09:28;101497.0;;;20.16;70.11
50652;BME280;61429;52.086;5.240;2022-08-05T04:11:15;101505.0;;;20.05;70.69
50652;BME280;61429;52.086;5.240;2022-08-05T04:14:53;101499.0;;;19.95;71.0
50652;BME280;61429;52.086;5.240;2022-08-05T04:16:40;101503.0;;;20.0;70.92
50652;BME280;61429;52.086;5.240;2022-08-05T04:18:27;101497.0;;;20.09;70.66
50652;BME280;61429;52.086;5.240;2022-08-05T04:20:18;101503.0;;;19.68;72.05
50652;BME280;61429;52.086;5.240;2022-08-05T04:22:05;101505.0;;;19.84;71.7
50652;BME280;61429;52.086;5.240;2022-08-05T04:23:51;101501.0;;;19.81;71.95
50652;BME280;61429;52.086;5.240;2022-08-05T04:27:23;101501.0;;;19.95;71.49
50652;BME280;61429;52.086;5.240;2022-08-05T04:29:09;101505.0;;;19.88;71.53
50652;BME280;61429;52.086;5.240;2022-08-05T04:30:57;101505.0;;;19.84;71.33
50652;BME280;61429;52.086;5.240;2022-08-05T04:32:44;101511.0;;;19.93;71.13
50652;BME280;61429;52.086;5.240;2022-08-05T04:34:31;101512.0;;;19.86;71.0
50652;BME280;61429;52.086;5.240;2022-08-05T04:36:17;101513.0;;;19.97;70.45
50652;BME280;61429;52.086;5.240;2022-08-05T04:39:50;101512.0;;;19.77;70.8
50652;BME280;61429;52.086;5.240;2022-08-05T04:41:36;101500.0;;;19.7;70.78
50652;BME280;61429;52.086;5.240;2022-08-05T04:43:22;101505.0;;;19.64;70.94
50652;BME280;61429;52.086;5.240;2022-08-05T04:45:09;101500.0;;;19.61;71.05
50652;BME280;61429;52.086;5.240;2022-08-05T04:46:56;101500.0;;;19.61;70.89
50652;BME280;61429;52.086;5.240;2022-08-05T04:50:29;101502.0;;;19.46;71.41
50652;BME280;61429;52.086;5.240;2022-08-05T04:52:16;101505.0;;;19.61;70.91
50652;BME280;61429;52.086;5.240;2022-08-05T04:54:03;101505.0;;;19.48;71.24
50652;BME280;61429;52.086;5.240;2022-08-05T04:55:49;101502.0;;;19.57;71.0
50652;BME280;61429;52.086;5.240;2022-08-05T04:57:36;101505.0;;;19.61;70.74
50652;BME280;61429;52.086;5.240;2022-08-05T04:59:22;101506.0;;;19.62;70.61
50652;BME280;61429;52.086;5.240;2022-08-05T05:02:55;101506.0;;;19.68;70.31
50652;BME280;61429;52.086;5.240;2022-08-05T05:04:41;101506.0;;;19.63;70.44
50652;BME280;61429;52.086;5.240;2022-08-05T05:06:27;101508.0;;;19.56;70.44
50652;BME280;61429;52.086;5.240;2022-08-05T05:08:15;101505.0;;;19.75;69.83
50652;BME280;61429;52.086;5.240;2022-08-05T05:10:05;101509.0;;;19.43;70.66
50652;BME280;61429;52.086;5.240;2022-08-05T05:11:51;101509.0;;;19.25;71.28
50652;BME280;61429;52.086;5.240;2022-08-05T05:15:24;101509.0;;;19.32;71.11
50652;BME280;61429;52.086;5.240;2022-08-05T05:17:10;101514.0;;;19.3;71.14
50652;BME280;61429;52.086;5.240;2022-08-05T05:18:56;101512.0;;;19.43;70.61
50652;BME280;61429;52.086;5.240;2022-08-05T05:20:44;101512.0;;;19.45;70.39
50652;BME280;61429;52.086;5.240;2022-08-05T05:22:32;101515.0;;;19.36;70.69
50652;BME280;61429;52.086;5.240;2022-08-05T05:26:07;101510.0;;;19.52;69.97
50652;BME280;61429;52.086;5.240;2022-08-05T05:27:54;101514.0;;;19.38;70.28
50652;BME280;61429;52.086;5.240;2022-08-05T05:29:41;101514.0;;;19.12;70.94
50652;BME280;61429;52.086;5.240;2022-08-05T05:31:28;101516.0;;;19.16;70.86
50652;BME280;61429;52.086;5.240;2022-08-05T05:33:15;101516.0;;;18.75;72.16
50652;BME280;61429;52.086;5.240;2022-08-05T05:35:02;101515.0;;;18.93;71.67
50652;BME280;61429;52.086;5.240;2022-08-05T05:38:34;101520.0;;;19.14;71.06
50652;BME280;61429;52.086;5.240;2022-08-05T05:40:23;101522.0;;;18.88;71.34
50652;BME280;61429;52.086;5.240;2022-08-05T05:42:10;101518.0;;;18.95;71.66
50652;BME280;61429;52.086;5.240;2022-08-05T05:43:57;101520.0;;;18.91;71.59
50652;BME280;61429;52.086;5.240;2022-08-05T05:45:44;101521.0;;;19.11;71.02
50652;BME280;61429;52.086;5.240;2022-08-05T05:47:30;101521.0;;;18.86;71.75
50652;BME280;61429;52.086;5.240;2022-08-05T05:51:02;101519.0;;;19.02;71.33
50652;BME280;61429;52.086;5.240;2022-08-05T05:52:49;101520.0;;;19.3;70.22
50652;BME280;61429;52.086;5.240;2022-08-05T05:54:35;101525.0;;;19.03;70.73
50652;BME280;61429;52.086;5.240;2022-08-05T05:56:24;101524.0;;;19.27;70.22
50652;BME280;61429;52.086;5.240;2022-08-05T05:58:11;101528.0;;;19.18;70.0
50652;BME280;61429;52.086;5.240;2022-08-05T05:59:57;101528.0;;;19.05;70.38
50652;BME280;61429;52.086;5.240;2022-08-05T06:03:29;101534.0;;;19.16;70.02
50652;BME280;61429;52.086;5.240;2022-08-05T06:05:16;101535.0;;;19.25;69.47
50652;BME280;61429;52.086;5.240;2022-08-05T06:07:03;101527.0;;;19.43;68.64
50652;BME280;61429;52.086;5.240;2022-08-05T06:08:48;101530.0;;;19.27;68.77
50652;BME280;61429;52.086;5.240;2022-08-05T06:10:36;101531.0;;;19.54;67.55
50652;BME280;61429;52.086;5.240;2022-08-05T06:14:08;101530.0;;;19.37;67.8
50652;BME280;61429;52.086;5.240;2022-08-05T06:15:54;101531.0;;;19.53;67.27
50652;BME280;61429;52.086;5.240;2022-08-05T06:17:41;101540.0;;;19.45;67.2
50652;BME280;61429;52.086;5.240;2022-08-05T06:19:28;101541.0;;;19.28;67.39
50652;BME280;61429;52.086;5.240;2022-08-05T06:21:14;101546.0;;;19.2;67.66
50652;BME280;61429;52.086;5.240;2022-08-05T06:23:01;101556.0;;;19.2;67.69
50652;BME280;61429;52.086;5.240;2022-08-05T06:26:33;101555.0;;;19.2;67.88
50652;BME280;61429;52.086;5.240;2022-08-05T06:28:20;101552.0;;;19.31;67.41
50652;BME280;61429;52.086;5.240;2022-08-05T06:30:07;101548.0;;;19.22;67.37
50652;BME280;61429;52.086;5.240;2022-08-05T06:31:55;101546.0;;;19.11;67.73
50652;BME280;61429;52.086;5.240;2022-08-05T06:33:41;101553.0;;;19.43;66.85
50652;BME280;61429;52.086;5.240;2022-08-05T06:35:27;101547.0;;;19.43;65.95
50652;BME280;61429;52.086;5.240;2022-08-05T06:39:00;101555.0;;;19.34;66.37
50652;BME280;61429;52.086;5.240;2022-08-05T06:40:47;101555.0;;;19.3;66.83
50652;BME280;61429;52.086;5.240;2022-08-05T06:42:34;101555.0;;;19.37;66.58
50652;BME280;61429;52.086;5.240;2022-08-05T06:44:21;101556.0;;;19.45;66.33
50652;BME280;61429;52.086;5.240;2022-08-05T06:46:07;101555.0;;;19.56;65.86
50652;BME280;61429;52.086;5.240;2022-08-05T06:49:39;101561.0;;;19.66;65.53
50652;BME280;61429;52.086;5.240;2022-08-05T06:51:26;101561.0;;;19.7;65.19
50652;BME280;61429;52.086;5.240;2022-08-05T06:53:14;101574.0;;;19.53;65.36
50652;BME280;61429;52.086;5.240;2022-08-05T06:55:00;101581.0;;;19.46;65.0
50652;BME280;61429;52.086;5.240;2022-08-05T06:56:46;101587.0;;;19.61;64.61
50652;BME280;61429;52.086;5.240;2022-08-05T06:58:33;101583.0;;;19.63;64.35
50652;BME280;61429;52.086;5.240;2022-08-05T07:02:07;101593.0;;;19.59;63.3
50652;BME280;61429;52.086;5.240;2022-08-05T07:03:54;101590.0;;;19.41;64.16
50652;BME280;61429;52.086;5.240;2022-08-05T07:05:40;101587.0;;;19.57;64.19
50652;BME280;61429;52.086;5.240;2022-08-05T07:07:26;101595.0;;;19.71;62.64
50652;BME280;61429;52.086;5.240;2022-08-05T07:09:12;101588.0;;;19.47;63.05
50652;BME280;61429;52.086;5.240;2022-08-05T07:16:59;101587.0;;;19.88;61.15
50652;BME280;61429;52.086;5.240;2022-08-05T07:18:45;101596.0;;;19.84;57.53
50652;BME280;61429;52.086;5.240;2022-08-05T07:20:31;101597.0;;;19.84;56.58
50652;BME280;61429;52.086;5.240;2022-08-05T07:22:21;101590.0;;;19.86;56.11
50652;BME280;61429;52.086;5.240;2022-08-05T07:24:08;101598.0;;;19.96;55.31
50652;BME280;61429;52.086;5.240;2022-08-05T07:25:55;101603.0;;;20.18;53.36
50652;BME280;61429;52.086;5.240;2022-08-05T07:29:27;101600.0;;;20.23;53.86
50652;BME280;61429;52.086;5.240;2022-08-05T07:31:13;101610.0;;;20.16;53.68
50652;BME280;61429;52.086;5.240;2022-08-05T07:33:01;101608.0;;;20.36;53.97
50652;BME280;61429;52.086;5.240;2022-08-05T07:34:47;101609.0;;;20.45;53.63
50652;BME280;61429;52.086;5.240;2022-08-05T07:36:33;101613.0;;;20.34;53.43
50652;BME280;61429;52.086;5.240;2022-08-05T07:38:21;101611.0;;;20.16;52.33
50652;BME280;61429;52.086;5.240;2022-08-05T07:41:54;101618.0;;;20.11;54.03
50652;BME280;61429;52.086;5.240;2022-08-05T07:43:41;101611.0;;;20.5;54.13
50652;BME280;61429;52.086;5.240;2022-08-05T07:45:28;101621.0;;;20.41;53.22
50652;BME280;61429;52.086;5.240;2022-08-05T07:47:14;101617.0;;;20.66;52.74
50652;BME280;61429;52.086;5.240;2022-08-05T07:49:02;101620.0;;;20.47;53.95
50652;BME280;61429;52.086;5.240;2022-08-05T07:50:48;101620.0;;;20.36;52.32
50652;BME280;61429;52.086;5.240;2022-08-05T07:54:25;101628.0;;;20.41;49.29
50652;BME280;61429;52.086;5.240;2022-08-05T07:56:11;101633.0;;;20.31;50.75
50652;BME280;61429;52.086;5.240;2022-08-05T07:57:57;101632.0;;;20.52;50.32
50652;BME280;61429;52.086;5.240;2022-08-05T07:59:43;101632.0;;;20.67;49.83
50652;BME280;61429;52.086;5.240;2022-08-05T08:01:29;101646.0;;;20.57;48.38
50652;BME280;61429;52.086;5.240;2022-08-05T08:05:04;101644.0;;;20.64;44.97
50652;BME280;61429;52.086;5.240;2022-08-05T08:06:50;101640.0;;;20.83;46.23
50652;BME280;61429;52.086;5.240;2022-08-05T08:08:36;101637.0;;;21.11;46.72
50652;BME280;61429;52.086;5.240;2022-08-05T08:10:22;101643.0;;;21.04;47.11
50652;BME280;61429;52.086;5.240;2022-08-05T08:12:08;101636.0;;;21.11;47.4
50652;BME280;61429;52.086;5.240;2022-08-05T08:13:56;101648.0;;;21.11;47.37
50652;BME280;61429;52.086;5.240;2022-08-05T08:17:29;101643.0;;;21.2;46.98
50652;BME280;61429;52.086;5.240;2022-08-05T08:19:16;101646.0;;;21.25;47.12
50652;BME280;61429;52.086;5.240;2022-08-05T08:21:03;101645.0;;;21.38;46.97
50652;BME280;61429;52.086;5.240;2022-08-05T08:22:51;101648.0;;;21.35;45.89
50652;BME280;61429;52.086;5.240;2022-08-05T08:24:38;101646.0;;;21.25;46.57
50652;BME280;61429;52.086;5.240;2022-08-05T08:26:25;101648.0;;;21.58;46.38
50652;BME280;61429;52.086;5.240;2022-08-05T08:29:58;101658.0;;;21.57;47.06
50652;BME280;61429;52.086;5.240;2022-08-05T08:31:44;101656.0;;;21.66;47.48
50652;BME280;61429;52.086;5.240;2022-08-05T08:33:32;101660.0;;;21.52;45.09
50652;BME280;61429;52.086;5.240;2022-08-05T08:35:18;101674.0;;;21.72;46.02
50652;BME280;61429;52.086;5.240;2022-08-05T08:37:05;101673.0;;;21.83;46.86
50652;BME280;61429;52.086;5.240;2022-08-05T08:38:54;101668.0;;;21.56;45.65
50652;BME280;61429;52.086;5.240;2022-08-05T08:42:29;101666.0;;;21.89;44.27
50652;BME280;61429;52.086;5.240;2022-08-05T08:44:18;101670.0;;;21.96;44.3
50652;BME280;61429;52.086;5.240;2022-08-05T08:46:06;101665.0;;;22.11;45.24
50652;BME280;61429;52.086;5.240;2022-08-05T08:47:54;101669.0;;;22.08;44.66
50652;BME280;61429;52.086;5.240;2022-08-05T08:49:44;101670.0;;;22.03;43.85
50652;BME280;61429;52.086;5.240;2022-08-05T08:51:34;101671.0;;;22.04;44.12
50652;BME280;61429;52.086;5.240;2022-08-05T08:55:12;101687.0;;;21.67;44.68
50652;BME280;61429;52.086;5.240;2022-08-05T08:56:59;101675.0;;;21.77;44.82
50652;BME280;61429;52.086;5.240;2022-08-05T08:58:47;101684.0;;;21.54;45.6
50652;BME280;61429;52.086;5.240;2022-08-05T09:00:34;101680.0;;;21.73;45.67
50652;BME280;61429;52.086;5.240;2022-08-05T09:02:22;101683.0;;;21.75;43.0
50652;BME280;61429;52.086;5.240;2022-08-05T09:04:09;101685.0;;;21.6;42.41
50652;BME280;61429;52.086;5.240;2022-08-05T09:07:42;101692.0;;;21.4;40.93
50652;BME280;61429;52.086;5.240;2022-08-05T09:09:29;101700.0;;;21.15;41.45
50652;BME280;61429;52.086;5.240;2022-08-05T09:11:15;101693.0;;;21.46;42.98
50652;BME280;61429;52.086;5.240;2022-08-05T09:13:01;101706.0;;;21.61;42.06
50652;BME280;61429;52.086;5.240;2022-08-05T09:14:47;101709.0;;;21.09;43.25
50652;BME280;61429;52.086;5.240;2022-08-05T09:16:34;101709.0;;;21.2;43.27
50652;BME280;61429;52.086;5.240;2022-08-05T09:20:08;101711.0;;;21.22;44.8
50652;BME280;61429;52.086;5.240;2022-08-05T09:21:56;101713.0;;;21.25;44.27
50652;BME280;61429;52.086;5.240;2022-08-05T09:23:43;101714.0;;;21.43;40.68
50652;BME280;61429;52.086;5.240;2022-08-05T09:25:31;101707.0;;;21.6;41.29
50652;BME280;61429;52.086;5.240;2022-08-05T09:27:30;101710.0;;;21.71;41.91
50652;BME280;61429;52.086;5.240;2022-08-05T09:29:18;101716.0;;;21.79;42.64
50652;BME280;61429;52.086;5.240;2022-08-05T09:32:59;101717.0;;;22.0;42.6
50652;BME280;61429;52.086;5.240;2022-08-05T09:34:48;101721.0;;;22.05;42.13
50652;BME280;61429;52.086;5.240;2022-08-05T09:36:40;101726.0;;;21.95;43.05
50652;BME280;61429;52.086;5.240;2022-08-05T09:38:29;101738.0;;;21.78;40.67
50652;BME280;61429;52.086;5.240;2022-08-05T09:40:33;101730.0;;;21.76;40.37
50652;BME280;61429;52.086;5.240;2022-08-05T09:42:21;101737.0;;;21.97;40.36
50652;BME280;61429;52.086;5.240;2022-08-05T09:44:08;101738.0;;;21.77;40.67
50652;BME280;61429;52.086;5.240;2022-08-05T09:45:54;101751.0;;;21.34;41.86
50652;BME280;61429;52.086;5.240;2022-08-05T09:49:27;101753.0;;;21.23;43.43
50652;BME280;61429;52.086;5.240;2022-08-05T09:51:14;101765.0;;;21.27;44.14
50652;BME280;61429;52.086;5.240;2022-08-05T09:53:00;101761.0;;;21.2;45.32
50652;BME280;61429;52.086;5.240;2022-08-05T09:54:56;101753.0;;;21.53;45.26
50652;BME280;61429;52.086;5.240;2022-08-05T09:56:45;101753.0;;;21.53;44.71
50652;BME280;61429;52.086;5.240;2022-08-05T09:58:31;101766.0;;;21.59;45.0
50652;BME280;61429;52.086;5.240;2022-08-05T10:02:08;101757.0;;;21.56;44.99
50652;BME280;61429;52.086;5.240;2022-08-05T10:03:57;101759.0;;;21.5;44.52
50652;BME280;61429;52.086;5.240;2022-08-05T10:05:45;101766.0;;;21.46;45.69
50652;BME280;61429;52.086;5.240;2022-08-05T10:07:50;101767.0;;;21.72;46.19
50652;BME280;61429;52.086;5.240;2022-08-05T10:09:52;101755.0;;;21.85;46.02
50652;BME280;61429;52.086;5.240;2022-08-05T10:11:42;101767.0;;;21.26;46.63
50652;BME280;61429;52.086;5.240;2022-08-05T10:13:32;101761.0;;;21.54;45.24
50652;BME280;61429;52.086;5.240;2022-08-05T10:15:22;101760.0;;;21.82;45.15
50652;BME280;61429;52.086;5.240;2022-08-05T10:19:00;101765.0;;;21.73;45.37
50652;BME280;61429;52.086;5.240;2022-08-05T10:20:49;101772.0;;;21.45;45.2
50652;BME280;61429;52.086;5.240;2022-08-05T10:22:38;101770.0;;;21.66;44.32
50652;BME280;61429;52.086;5.240;2022-08-05T10:24:25;101777.0;;;21.69;44.07
50652;BME280;61429;52.086;5.240;2022-08-05T10:26:13;101790.0;;;21.61;44.24
50652;BME280;61429;52.086;5.240;2022-08-05T10:28:00;101780.0;;;21.6;42.74
50652;BME280;61429;52.086;5.240;2022-08-05T10:29:47;101778.0;;;21.73;42.73
50652;BME280;61429;52.086;5.240;2022-08-05T10:33:25;101785.0;;;21.67;41.54
50652;BME280;61429;52.086;5.240;2022-08-05T10:35:11;101787.0;;;21.6;43.01
50652;BME280;61429;52.086;5.240;2022-08-05T10:37:01;101780.0;;;21.47;41.59
50652;BME280;61429;52.086;5.240;2022-08-05T10:38:51;101787.0;;;21.61;40.62
50652;BME280;61429;52.086;5.240;2022-08-05T10:40:52;101794.0;;;21.69;38.19
50652;BME280;61429;52.086;5.240;2022-08-05T10:42:43;101791.0;;;21.78;36.56
50652;BME280;61429;52.086;5.240;2022-08-05T10:44:35;101798.0;;;21.79;34.17
50652;BME280;61429;52.086;5.240;2022-08-05T10:48:41;101792.0;;;21.97;33.71
50652;BME280;61429;52.086;5.240;2022-08-05T10:50:28;101789.0;;;22.03;33.65
50652;BME280;61429;52.086;5.240;2022-08-05T10:52:36;101797.0;;;21.76;32.75
50652;BME280;61429;52.086;5.240;2022-08-05T10:54:44;101800.0;;;21.65;32.78
50652;BME280;61429;52.086;5.240;2022-08-05T10:56:43;101803.0;;;21.97;32.57
50652;BME280;61429;52.086;5.240;2022-08-05T10:58:32;101807.0;;;22.11;32.69
50652;BME280;61429;52.086;5.240;2022-08-05T11:00:20;101818.0;;;21.94;32.96
50652;BME280;61429;52.086;5.240;2022-08-05T11:02:09;101814.0;;;22.03;33.17
50652;BME280;61429;52.086;5.240;2022-08-05T11:04:00;101815.0;;;21.74;33.19
50652;BME280;61429;52.086;5.240;2022-08-05T11:06:08;101818.0;;;21.78;33.61
50652;BME280;61429;52.086;5.240;2022-08-05T11:07:58;101816.0;;;21.59;34.46
50652;BME280;61429;52.086;5.240;2022-08-05T11:09:46;101825.0;;;21.75;34.56
50652;BME280;61429;52.086;5.240;2022-08-05T11:13:39;101827.0;;;21.97;34.36